sensor_id;sensor_type;location;lat;lon;timestamp;temperature;humidity
14192;DHT22;7177;48.572;7.838;2023-04-24T00:00:05;10.90;99.90
14192;DHT22;7177;48.572;7.838;2023-04-24T00:02:31;11.00;99.90
14192;DHT22;7177;48.572;7.838;2023-04-24T00:04:58;11.00;99.90
14192;DHT22;7177;48.572;7.838;2023-04-24T00:07:28;11.00;99.90
14192;DHT22;7177;48.572;7.838;2023-04-24T00:09:54;11.00;99.90
14192;DHT22;7177;48.572;7.838;2023-04-24T00:12:20;11.00;99.90
14192;DHT22;7177;48.572;7.838;2023-04-24T00:14:45;11.00;99.90
14192;DHT22;7177;48.572;7.838;2023-04-24T00:17:11;11.00;99.90
14192;DHT22;7177;48.572;7.838;2023-04-24T00:19:36;11.10;99.90
14192;DHT22;7177;48.572;7.838;2023-04-24T00:22:02;11.00;99.90
14192;DHT22;7177;48.572;7.838;2023-04-24T00:24:28;11.10;99.90
14192;DHT22;7177;48.572;7.838;2023-04-24T00:26:53;11.10;99.90
14192;DHT22;7177;48.572;7.838;2023-04-24T00:29:19;11.10;99.90
14192;DHT22;7177;48.572;7.838;2023-04-24T00:31:44;11.10;99.90
14192;DHT22;7177;48.572;7.838;2023-04-24T00:34:10;11.20;99.90
14192;DHT22;7177;48.572;7.838;2023-04-24T00:36:37;11.20;99.90
14192;DHT22;7177;48.572;7.838;2023-04-24T00:39:02;11.20;99.90
14192;DHT22;7177;48.572;7.838;2023-04-24T00:41:28;11.20;99.90
14192;DHT22;7177;48.572;7.838;2023-04-24T00:43:54;11.20;99.90
14192;DHT22;7177;48.572;7.838;2023-04-24T00:46:21;11.20;99.90
14192;DHT22;7177;48.572;7.838;2023-04-24T00:48:46;11.20;99.90
14192;DHT22;7177;48.572;7.838;2023-04-24T00:51:12;11.20;99.90
14192;DHT22;7177;48.572;7.838;2023-04-24T00:53:37;11.10;99.90
14192;DHT22;7177;48.572;7.838;2023-04-24T00:56:04;11.10;99.90
14192;DHT22;7177;48.572;7.838;2023-04-24T00:58:31;11.20;99.90
14192;DHT22;7177;48.572;7.838;2023-04-24T01:00:57;11.10;99.90
14192;DHT22;7177;48.572;7.838;2023-04-24T01:03:29;11.20;99.90
14192;DHT22;7177;48.572;7.838;2023-04-24T01:05:55;11.20;99.90
14192;DHT22;7177;48.572;7.838;2023-04-24T01:08:23;11.10;99.90
14192;DHT22;7177;48.572;7.838;2023-04-24T01:10:51;11.20;99.90
14192;DHT22;7177;48.572;7.838;2023-04-24T01:13:18;11.20;99.90
14192;DHT22;7177;48.572;7.838;2023-04-24T01:15:44;11.20;99.90
14192;DHT22;7177;48.572;7.838;2023-04-24T01:18:10;11.10;99.90
14192;DHT22;7177;48.572;7.838;2023-04-24T01:20:37;11.10;99.90
14192;DHT22;7177;48.572;7.838;2023-04-24T01:23:05;11.10;99.90
14192;DHT22;7177;48.572;7.838;2023-04-24T01:25:31;11.10;99.90
14192;DHT22;7177;48.572;7.838;2023-04-24T01:27:57;11.10;99.90
14192;DHT22;7177;48.572;7.838;2023-04-24T01:30:22;11.00;99.90
14192;DHT22;7177;48.572;7.838;2023-04-24T01:32:48;11.10;99.90
14192;DHT22;7177;48.572;7.838;2023-04-24T01:35:14;11.00;99.90
14192;DHT22;7177;48.572;7.838;2023-04-24T01:37:39;11.00;99.90
14192;DHT22;7177;48.572;7.838;2023-04-24T01:40:06;11.00;99.90
14192;DHT22;7177;48.572;7.838;2023-04-24T01:42:32;11.00;99.90
14192;DHT22;7177;48.572;7.838;2023-04-24T01:44:59;11.00;99.90
14192;DHT22;7177;48.572;7.838;2023-04-24T01:47:25;11.00;99.90
14192;DHT22;7177;48.572;7.838;2023-04-24T01:52:17;11.00;99.90
14192;DHT22;7177;48.572;7.838;2023-04-24T01:54:44;11.10;99.90
14192;DHT22;7177;48.572;7.838;2023-04-24T01:57:10;11.00;99.90
14192;DHT22;7177;48.572;7.838;2023-04-24T01:59:36;11.00;99.90
14192;DHT22;7177;48.572;7.838;2023-04-24T02:02:02;11.00;99.90
14192;DHT22;7177;48.572;7.838;2023-04-24T02:04:28;10.90;99.90
14192;DHT22;7177;48.572;7.838;2023-04-24T02:06:53;10.90;99.90
14192;DHT22;7177;48.572;7.838;2023-04-24T02:09:19;10.90;99.90
14192;DHT22;7177;48.572;7.838;2023-04-24T02:11:44;10.90;99.90
14192;DHT22;7177;48.572;7.838;2023-04-24T02:14:10;10.90;99.90
14192;DHT22;7177;48.572;7.838;2023-04-24T02:16:35;10.90;99.90
14192;DHT22;7177;48.572;7.838;2023-04-24T02:19:01;10.90;99.90
14192;DHT22;7177;48.572;7.838;2023-04-24T02:21:27;10.90;99.90
14192;DHT22;7177;48.572;7.838;2023-04-24T02:23:53;10.90;99.90
14192;DHT22;7177;48.572;7.838;2023-04-24T02:26:19;10.90;99.90
14192;DHT22;7177;48.572;7.838;2023-04-24T02:28:44;10.90;99.90
14192;DHT22;7177;48.572;7.838;2023-04-24T02:31:10;10.90;99.90
14192;DHT22;7177;48.572;7.838;2023-04-24T02:33:35;10.90;99.90
14192;DHT22;7177;48.572;7.838;2023-04-24T02:36:02;10.90;99.90
14192;DHT22;7177;48.572;7.838;2023-04-24T02:38:28;10.90;99.90
14192;DHT22;7177;48.572;7.838;2023-04-24T02:40:54;10.90;99.90
14192;DHT22;7177;48.572;7.838;2023-04-24T02:43:19;10.90;99.90
14192;DHT22;7177;48.572;7.838;2023-04-24T02:45:45;10.90;99.90
14192;DHT22;7177;48.572;7.838;2023-04-24T02:48:11;11.00;99.90
14192;DHT22;7177;48.572;7.838;2023-04-24T02:50:36;10.90;99.90
14192;DHT22;7177;48.572;7.838;2023-04-24T02:53:02;10.90;99.90
14192;DHT22;7177;48.572;7.838;2023-04-24T02:55:28;10.80;99.90
14192;DHT22;7177;48.572;7.838;2023-04-24T02:57:53;10.80;99.90
14192;DHT22;7177;48.572;7.838;2023-04-24T03:00:19;10.80;99.90
14192;DHT22;7177;48.572;7.838;2023-04-24T03:02:45;10.80;99.90
14192;DHT22;7177;48.572;7.838;2023-04-24T03:05:10;10.80;99.90
14192;DHT22;7177;48.572;7.838;2023-04-24T03:07:37;10.80;99.90
14192;DHT22;7177;48.572;7.838;2023-04-24T03:10:03;10.80;99.90
14192;DHT22;7177;48.572;7.838;2023-04-24T03:12:30;10.80;99.90
14192;DHT22;7177;48.572;7.838;2023-04-24T03:14:55;10.80;99.90
14192;DHT22;7177;48.572;7.838;2023-04-24T03:17:21;10.80;99.90
14192;DHT22;7177;48.572;7.838;2023-04-24T03:19:47;10.80;99.90
14192;DHT22;7177;48.572;7.838;2023-04-24T03:22:12;10.90;99.90
14192;DHT22;7177;48.572;7.838;2023-04-24T03:24:38;10.90;99.90
14192;DHT22;7177;48.572;7.838;2023-04-24T03:27:03;10.90;99.90
14192;DHT22;7177;48.572;7.838;2023-04-24T03:29:29;10.90;99.90
14192;DHT22;7177;48.572;7.838;2023-04-24T03:31:54;10.90;99.90
14192;DHT22;7177;48.572;7.838;2023-04-24T03:34:20;10.90;99.90
14192;DHT22;7177;48.572;7.838;2023-04-24T03:36:45;10.80;99.90
14192;DHT22;7177;48.572;7.838;2023-04-24T03:39:13;10.80;99.90
14192;DHT22;7177;48.572;7.838;2023-04-24T03:41:38;10.80;99.90
14192;DHT22;7177;48.572;7.838;2023-04-24T03:44:04;10.80;99.90
14192;DHT22;7177;48.572;7.838;2023-04-24T03:46:29;10.70;99.90
14192;DHT22;7177;48.572;7.838;2023-04-24T03:48:55;10.60;99.90
14192;DHT22;7177;48.572;7.838;2023-04-24T03:51:20;10.60;99.90
14192;DHT22;7177;48.572;7.838;2023-04-24T03:53:47;10.50;99.90
14192;DHT22;7177;48.572;7.838;2023-04-24T03:56:12;10.40;99.90
14192;DHT22;7177;48.572;7.838;2023-04-24T03:58:38;10.40;99.90
14192;DHT22;7177;48.572;7.838;2023-04-24T04:01:03;10.30;99.90
14192;DHT22;7177;48.572;7.838;2023-04-24T04:03:29;10.30;99.90
14192;DHT22;7177;48.572;7.838;2023-04-24T04:05:55;10.30;99.90
14192;DHT22;7177;48.572;7.838;2023-04-24T04:08:20;10.20;99.90
14192;DHT22;7177;48.572;7.838;2023-04-24T04:10:46;10.20;99.90
14192;DHT22;7177;48.572;7.838;2023-04-24T04:13:11;10.20;99.90
14192;DHT22;7177;48.572;7.838;2023-04-24T04:15:37;10.50;99.90
14192;DHT22;7177;48.572;7.838;2023-04-24T04:18:02;11.10;99.90
14192;DHT22;7177;48.572;7.838;2023-04-24T04:20:28;11.20;99.90
14192;DHT22;7177;48.572;7.838;2023-04-24T04:22:53;11.30;99.90
14192;DHT22;7177;48.572;7.838;2023-04-24T04:25:19;11.30;99.90
14192;DHT22;7177;48.572;7.838;2023-04-24T04:27:45;11.20;99.90
14192;DHT22;7177;48.572;7.838;2023-04-24T04:30:13;10.90;99.90
14192;DHT22;7177;48.572;7.838;2023-04-24T04:32:39;10.80;99.90
14192;DHT22;7177;48.572;7.838;2023-04-24T04:35:05;10.60;99.90
14192;DHT22;7177;48.572;7.838;2023-04-24T04:37:34;10.50;99.90
14192;DHT22;7177;48.572;7.838;2023-04-24T04:40:00;10.40;99.90
14192;DHT22;7177;48.572;7.838;2023-04-24T04:42:26;10.20;99.90
14192;DHT22;7177;48.572;7.838;2023-04-24T04:44:52;10.20;99.90
14192;DHT22;7177;48.572;7.838;2023-04-24T04:47:20;10.10;99.90
14192;DHT22;7177;48.572;7.838;2023-04-24T04:49:47;10.00;99.90
14192;DHT22;7177;48.572;7.838;2023-04-24T04:52:13;10.00;99.90
14192;DHT22;7177;48.572;7.838;2023-04-24T04:54:38;9.90;99.90
14192;DHT22;7177;48.572;7.838;2023-04-24T04:57:04;9.90;99.90
14192;DHT22;7177;48.572;7.838;2023-04-24T04:59:30;10.00;99.90
14192;DHT22;7177;48.572;7.838;2023-04-24T05:01:55;10.00;99.90
14192;DHT22;7177;48.572;7.838;2023-04-24T05:04:21;10.00;99.90
14192;DHT22;7177;48.572;7.838;2023-04-24T05:06:46;10.00;99.90
14192;DHT22;7177;48.572;7.838;2023-04-24T05:09:12;10.00;99.90
14192;DHT22;7177;48.572;7.838;2023-04-24T05:11:38;10.00;99.90
14192;DHT22;7177;48.572;7.838;2023-04-24T05:14:03;10.10;99.90
14192;DHT22;7177;48.572;7.838;2023-04-24T05:16:29;10.10;99.90
14192;DHT22;7177;48.572;7.838;2023-04-24T05:18:55;10.10;99.90
14192;DHT22;7177;48.572;7.838;2023-04-24T05:21:21;10.10;99.90
14192;DHT22;7177;48.572;7.838;2023-04-24T05:23:46;10.10;99.90
14192;DHT22;7177;48.572;7.838;2023-04-24T05:26:13;10.10;99.90
14192;DHT22;7177;48.572;7.838;2023-04-24T05:28:38;10.20;99.90
14192;DHT22;7177;48.572;7.838;2023-04-24T05:31:04;10.10;99.90
14192;DHT22;7177;48.572;7.838;2023-04-24T05:33:30;10.20;99.90
14192;DHT22;7177;48.572;7.838;2023-04-24T05:35:55;10.20;99.90
14192;DHT22;7177;48.572;7.838;2023-04-24T05:38:21;10.20;99.90
14192;DHT22;7177;48.572;7.838;2023-04-24T05:40:46;10.20;99.90
14192;DHT22;7177;48.572;7.838;2023-04-24T05:43:12;10.20;99.90
14192;DHT22;7177;48.572;7.838;2023-04-24T05:45:38;10.20;99.90
14192;DHT22;7177;48.572;7.838;2023-04-24T05:48:04;10.20;99.90
14192;DHT22;7177;48.572;7.838;2023-04-24T05:50:29;10.30;99.90
14192;DHT22;7177;48.572;7.838;2023-04-24T05:52:55;10.30;99.90
14192;DHT22;7177;48.572;7.838;2023-04-24T05:55:23;10.40;99.90
14192;DHT22;7177;48.572;7.838;2023-04-24T05:57:49;10.40;99.90
14192;DHT22;7177;48.572;7.838;2023-04-24T06:00:15;10.40;99.90
14192;DHT22;7177;48.572;7.838;2023-04-24T06:02:41;10.50;99.90
14192;DHT22;7177;48.572;7.838;2023-04-24T06:05:07;10.50;99.90
14192;DHT22;7177;48.572;7.838;2023-04-24T06:07:33;10.60;99.90
14192;DHT22;7177;48.572;7.838;2023-04-24T06:09:59;10.80;99.90
14192;DHT22;7177;48.572;7.838;2023-04-24T06:12:25;11.10;99.90
14192;DHT22;7177;48.572;7.838;2023-04-24T06:14:51;11.30;99.90
14192;DHT22;7177;48.572;7.838;2023-04-24T06:17:16;11.40;99.90
14192;DHT22;7177;48.572;7.838;2023-04-24T06:19:42;11.70;99.90
14192;DHT22;7177;48.572;7.838;2023-04-24T06:22:08;11.90;99.90
14192;DHT22;7177;48.572;7.838;2023-04-24T06:24:34;12.00;99.90
14192;DHT22;7177;48.572;7.838;2023-04-24T06:26:59;12.10;99.90
14192;DHT22;7177;48.572;7.838;2023-04-24T06:29:26;12.20;99.90
14192;DHT22;7177;48.572;7.838;2023-04-24T06:31:52;12.20;99.90
14192;DHT22;7177;48.572;7.838;2023-04-24T06:34:18;12.20;99.90
14192;DHT22;7177;48.572;7.838;2023-04-24T06:36:43;12.30;99.90
14192;DHT22;7177;48.572;7.838;2023-04-24T06:39:09;12.60;99.90
14192;DHT22;7177;48.572;7.838;2023-04-24T06:41:34;12.70;99.90
14192;DHT22;7177;48.572;7.838;2023-04-24T06:44:00;12.90;99.90
14192;DHT22;7177;48.572;7.838;2023-04-24T06:46:25;13.30;99.90
14192;DHT22;7177;48.572;7.838;2023-04-24T06:48:53;13.80;99.90
14192;DHT22;7177;48.572;7.838;2023-04-24T06:51:24;13.50;99.90
14192;DHT22;7177;48.572;7.838;2023-04-24T06:53:50;13.30;99.90
14192;DHT22;7177;48.572;7.838;2023-04-24T06:56:16;13.10;99.90
14192;DHT22;7177;48.572;7.838;2023-04-24T06:58:42;12.90;99.90
14192;DHT22;7177;48.572;7.838;2023-04-24T07:01:07;12.90;99.90
14192;DHT22;7177;48.572;7.838;2023-04-24T07:03:33;12.80;99.90
14192;DHT22;7177;48.572;7.838;2023-04-24T07:05:58;12.80;99.90
14192;DHT22;7177;48.572;7.838;2023-04-24T07:08:24;12.70;99.90
14192;DHT22;7177;48.572;7.838;2023-04-24T07:10:50;12.40;99.90
14192;DHT22;7177;48.572;7.838;2023-04-24T07:13:16;12.30;99.90
14192;DHT22;7177;48.572;7.838;2023-04-24T07:15:42;12.40;99.90
14192;DHT22;7177;48.572;7.838;2023-04-24T07:18:08;12.20;99.90
14192;DHT22;7177;48.572;7.838;2023-04-24T07:20:33;12.10;99.90
14192;DHT22;7177;48.572;7.838;2023-04-24T07:22:59;12.00;99.90
14192;DHT22;7177;48.572;7.838;2023-04-24T07:25:25;12.00;99.90
14192;DHT22;7177;48.572;7.838;2023-04-24T07:27:50;11.90;99.90
14192;DHT22;7177;48.572;7.838;2023-04-24T07:30:16;11.90;99.90
14192;DHT22;7177;48.572;7.838;2023-04-24T07:32:41;11.70;99.90
14192;DHT22;7177;48.572;7.838;2023-04-24T07:35:07;11.80;99.90
14192;DHT22;7177;48.572;7.838;2023-04-24T07:37:34;11.70;99.90
14192;DHT22;7177;48.572;7.838;2023-04-24T07:40:00;11.70;99.90
14192;DHT22;7177;48.572;7.838;2023-04-24T07:42:26;11.70;99.90
14192;DHT22;7177;48.572;7.838;2023-04-24T07:44:51;11.60;99.90
14192;DHT22;7177;48.572;7.838;2023-04-24T07:47:17;11.60;99.90
14192;DHT22;7177;48.572;7.838;2023-04-24T07:49:42;11.60;99.90
14192;DHT22;7177;48.572;7.838;2023-04-24T07:52:08;11.70;99.90
14192;DHT22;7177;48.572;7.838;2023-04-24T07:54:34;11.80;99.90
14192;DHT22;7177;48.572;7.838;2023-04-24T07:56:59;11.90;99.90
14192;DHT22;7177;48.572;7.838;2023-04-24T07:59:26;11.80;99.90
14192;DHT22;7177;48.572;7.838;2023-04-24T08:01:51;11.80;99.90
14192;DHT22;7177;48.572;7.838;2023-04-24T08:04:17;11.80;99.90
14192;DHT22;7177;48.572;7.838;2023-04-24T08:06:43;11.60;99.90
14192;DHT22;7177;48.572;7.838;2023-04-24T08:09:09;11.60;99.90
14192;DHT22;7177;48.572;7.838;2023-04-24T08:11:35;11.50;99.90
14192;DHT22;7177;48.572;7.838;2023-04-24T08:14:00;11.50;99.90
14192;DHT22;7177;48.572;7.838;2023-04-24T08:16:26;11.60;99.90
14192;DHT22;7177;48.572;7.838;2023-04-24T08:18:52;11.60;99.90
14192;DHT22;7177;48.572;7.838;2023-04-24T08:21:18;11.60;99.90
14192;DHT22;7177;48.572;7.838;2023-04-24T08:23:44;11.60;99.90
14192;DHT22;7177;48.572;7.838;2023-04-24T08:26:11;11.60;99.90
14192;DHT22;7177;48.572;7.838;2023-04-24T08:28:37;11.50;99.90
14192;DHT22;7177;48.572;7.838;2023-04-24T08:31:02;11.50;99.90
14192;DHT22;7177;48.572;7.838;2023-04-24T08:33:28;11.60;99.90
14192;DHT22;7177;48.572;7.838;2023-04-24T08:36:03;11.70;99.90
14192;DHT22;7177;48.572;7.838;2023-04-24T08:38:28;11.90;99.90
14192;DHT22;7177;48.572;7.838;2023-04-24T08:40:55;12.10;99.90
14192;DHT22;7177;48.572;7.838;2023-04-24T08:43:22;12.20;99.90
14192;DHT22;7177;48.572;7.838;2023-04-24T08:45:48;12.20;99.90
14192;DHT22;7177;48.572;7.838;2023-04-24T08:48:14;12.20;99.90
14192;DHT22;7177;48.572;7.838;2023-04-24T08:50:40;12.20;99.90
14192;DHT22;7177;48.572;7.838;2023-04-24T08:53:08;12.00;99.90
14192;DHT22;7177;48.572;7.838;2023-04-24T08:55:34;11.90;99.90
14192;DHT22;7177;48.572;7.838;2023-04-24T08:58:01;11.80;99.90
14192;DHT22;7177;48.572;7.838;2023-04-24T09:00:27;11.90;99.90
14192;DHT22;7177;48.572;7.838;2023-04-24T09:02:54;12.00;99.90
14192;DHT22;7177;48.572;7.838;2023-04-24T09:05:21;12.10;99.90
14192;DHT22;7177;48.572;7.838;2023-04-24T09:07:54;12.10;99.90
14192;DHT22;7177;48.572;7.838;2023-04-24T09:10:24;12.10;99.90
14192;DHT22;7177;48.572;7.838;2023-04-24T09:12:51;12.10;99.90
14192;DHT22;7177;48.572;7.838;2023-04-24T09:15:19;12.10;99.90
14192;DHT22;7177;48.572;7.838;2023-04-24T09:17:45;12.10;99.90
14192;DHT22;7177;48.572;7.838;2023-04-24T09:20:11;12.00;99.90
14192;DHT22;7177;48.572;7.838;2023-04-24T09:22:37;12.00;99.90
14192;DHT22;7177;48.572;7.838;2023-04-24T09:25:04;12.00;99.90
14192;DHT22;7177;48.572;7.838;2023-04-24T09:27:32;12.10;99.90
14192;DHT22;7177;48.572;7.838;2023-04-24T09:29:58;12.10;99.90
14192;DHT22;7177;48.572;7.838;2023-04-24T09:32:24;12.20;99.90
14192;DHT22;7177;48.572;7.838;2023-04-24T09:35:05;12.20;99.90
14192;DHT22;7177;48.572;7.838;2023-04-24T09:37:35;12.10;99.90
14192;DHT22;7177;48.572;7.838;2023-04-24T09:42:37;11.80;99.90
14192;DHT22;7177;48.572;7.838;2023-04-24T09:45:04;11.80;99.90
14192;DHT22;7177;48.572;7.838;2023-04-24T09:47:37;11.70;99.90
14192;DHT22;7177;48.572;7.838;2023-04-24T09:50:16;11.70;99.90
14192;DHT22;7177;48.572;7.838;2023-04-24T09:52:46;12.10;99.90
14192;DHT22;7177;48.572;7.838;2023-04-24T09:55:19;12.10;99.90
14192;DHT22;7177;48.572;7.838;2023-04-24T10:00:28;12.80;99.90
14192;DHT22;7177;48.572;7.838;2023-04-24T10:05:24;13.30;99.90
14192;DHT22;7177;48.572;7.838;2023-04-24T10:07:51;13.80;99.90
14192;DHT22;7177;48.572;7.838;2023-04-24T10:10:16;13.90;99.90
14192;DHT22;7177;48.572;7.838;2023-04-24T10:12:43;14.40;99.90
14192;DHT22;7177;48.572;7.838;2023-04-24T10:15:10;14.60;99.90
14192;DHT22;7177;48.572;7.838;2023-04-24T10:17:38;14.50;99.90
14192;DHT22;7177;48.572;7.838;2023-04-24T10:20:05;14.10;99.90
14192;DHT22;7177;48.572;7.838;2023-04-24T10:22:32;13.90;99.90
14192;DHT22;7177;48.572;7.838;2023-04-24T10:24:59;13.80;99.90
14192;DHT22;7177;48.572;7.838;2023-04-24T10:27:26;13.70;99.90
14192;DHT22;7177;48.572;7.838;2023-04-24T10:29:53;13.40;99.90
14192;DHT22;7177;48.572;7.838;2023-04-24T10:32:18;13.10;99.90
14192;DHT22;7177;48.572;7.838;2023-04-24T10:34:44;13.20;99.90
14192;DHT22;7177;48.572;7.838;2023-04-24T10:37:10;13.00;99.90
14192;DHT22;7177;48.572;7.838;2023-04-24T10:39:36;12.80;99.90
14192;DHT22;7177;48.572;7.838;2023-04-24T10:42:14;13.00;99.90
14192;DHT22;7177;48.572;7.838;2023-04-24T10:44:40;13.00;99.90
14192;DHT22;7177;48.572;7.838;2023-04-24T10:47:12;13.00;99.90
14192;DHT22;7177;48.572;7.838;2023-04-24T10:49:38;13.00;99.90
14192;DHT22;7177;48.572;7.838;2023-04-24T10:52:04;12.90;99.90
14192;DHT22;7177;48.572;7.838;2023-04-24T10:59:50;13.20;99.90
14192;DHT22;7177;48.572;7.838;2023-04-24T11:02:17;13.50;99.90
14192;DHT22;7177;48.572;7.838;2023-04-24T11:04:43;13.90;99.90
14192;DHT22;7177;48.572;7.838;2023-04-24T11:07:10;14.10;99.90
14192;DHT22;7177;48.572;7.838;2023-04-24T11:09:36;14.30;99.90
14192;DHT22;7177;48.572;7.838;2023-04-24T11:12:07;14.30;99.90
14192;DHT22;7177;48.572;7.838;2023-04-24T11:17:37;14.40;99.90
14192;DHT22;7177;48.572;7.838;2023-04-24T11:20:15;14.30;99.90
14192;DHT22;7177;48.572;7.838;2023-04-24T11:22:41;14.30;99.90
14192;DHT22;7177;48.572;7.838;2023-04-24T11:25:08;14.30;99.90
14192;DHT22;7177;48.572;7.838;2023-04-24T11:27:43;14.20;99.90
14192;DHT22;7177;48.572;7.838;2023-04-24T11:30:10;14.10;99.90
14192;DHT22;7177;48.572;7.838;2023-04-24T11:32:37;13.90;99.90
14192;DHT22;7177;48.572;7.838;2023-04-24T11:35:17;13.70;99.90
14192;DHT22;7177;48.572;7.838;2023-04-24T11:37:45;13.50;99.90
14192;DHT22;7177;48.572;7.838;2023-04-24T11:40:13;13.40;99.90
14192;DHT22;7177;48.572;7.838;2023-04-24T11:42:41;13.30;99.90
14192;DHT22;7177;48.572;7.838;2023-04-24T11:45:15;13.10;99.90
14192;DHT22;7177;48.572;7.838;2023-04-24T11:47:42;12.90;99.90
14192;DHT22;7177;48.572;7.838;2023-04-24T11:50:11;12.80;99.90
14192;DHT22;7177;48.572;7.838;2023-04-24T11:52:38;12.80;99.90
14192;DHT22;7177;48.572;7.838;2023-04-24T11:55:04;12.80;99.90
14192;DHT22;7177;48.572;7.838;2023-04-24T11:57:30;12.80;99.90
14192;DHT22;7177;48.572;7.838;2023-04-24T12:00:03;12.80;99.90
14192;DHT22;7177;48.572;7.838;2023-04-24T12:02:30;12.80;99.90
14192;DHT22;7177;48.572;7.838;2023-04-24T12:04:56;12.80;99.90
14192;DHT22;7177;48.572;7.838;2023-04-24T12:07:22;12.90;99.90
14192;DHT22;7177;48.572;7.838;2023-04-24T12:09:56;13.00;99.90
14192;DHT22;7177;48.572;7.838;2023-04-24T12:12:25;13.00;99.90
14192;DHT22;7177;48.572;7.838;2023-04-24T12:14:55;12.90;99.90
14192;DHT22;7177;48.572;7.838;2023-04-24T12:17:32;12.80;99.90
14192;DHT22;7177;48.572;7.838;2023-04-24T12:20:02;12.80;99.90
14192;DHT22;7177;48.572;7.838;2023-04-24T12:25:11;12.60;99.90
14192;DHT22;7177;48.572;7.838;2023-04-24T12:27:37;12.70;99.90
14192;DHT22;7177;48.572;7.838;2023-04-24T12:30:05;12.70;99.90
14192;DHT22;7177;48.572;7.838;2023-04-24T12:32:31;12.70;99.90
14192;DHT22;7177;48.572;7.838;2023-04-24T12:34:57;12.80;99.90
14192;DHT22;7177;48.572;7.838;2023-04-24T12:37:31;12.80;99.90
14192;DHT22;7177;48.572;7.838;2023-04-24T12:40:10;12.80;99.90
14192;DHT22;7177;48.572;7.838;2023-04-24T12:42:42;12.90;99.90
14192;DHT22;7177;48.572;7.838;2023-04-24T12:45:08;12.90;99.90
14192;DHT22;7177;48.572;7.838;2023-04-24T12:47:34;12.90;99.90
14192;DHT22;7177;48.572;7.838;2023-04-24T12:50:01;12.90;99.90
14192;DHT22;7177;48.572;7.838;2023-04-24T12:52:28;12.90;99.90
14192;DHT22;7177;48.572;7.838;2023-04-24T12:54:55;13.00;99.90
14192;DHT22;7177;48.572;7.838;2023-04-24T12:57:22;13.00;99.90
14192;DHT22;7177;48.572;7.838;2023-04-24T12:59:48;13.10;99.90
14192;DHT22;7177;48.572;7.838;2023-04-24T13:02:13;13.10;99.90
14192;DHT22;7177;48.572;7.838;2023-04-24T13:04:48;13.10;99.90
14192;DHT22;7177;48.572;7.838;2023-04-24T13:07:14;13.10;99.90
14192;DHT22;7177;48.572;7.838;2023-04-24T13:09:41;13.10;99.90
14192;DHT22;7177;48.572;7.838;2023-04-24T13:12:07;13.10;99.90
14192;DHT22;7177;48.572;7.838;2023-04-24T13:14:34;13.00;99.90
14192;DHT22;7177;48.572;7.838;2023-04-24T13:17:00;12.90;99.90
14192;DHT22;7177;48.572;7.838;2023-04-24T13:19:27;12.90;99.90
14192;DHT22;7177;48.572;7.838;2023-04-24T13:21:53;12.80;99.90
14192;DHT22;7177;48.572;7.838;2023-04-24T13:24:20;12.90;99.90
14192;DHT22;7177;48.572;7.838;2023-04-24T13:26:46;13.00;99.90
14192;DHT22;7177;48.572;7.838;2023-04-24T13:29:11;13.10;99.90
14192;DHT22;7177;48.572;7.838;2023-04-24T13:31:37;13.20;99.90
14192;DHT22;7177;48.572;7.838;2023-04-24T13:34:03;13.20;99.90
14192;DHT22;7177;48.572;7.838;2023-04-24T13:36:29;13.20;99.90
14192;DHT22;7177;48.572;7.838;2023-04-24T13:38:55;13.20;99.90
14192;DHT22;7177;48.572;7.838;2023-04-24T13:41:21;13.30;99.90
14192;DHT22;7177;48.572;7.838;2023-04-24T13:43:46;13.50;99.90
14192;DHT22;7177;48.572;7.838;2023-04-24T13:46:12;13.70;99.90
14192;DHT22;7177;48.572;7.838;2023-04-24T13:48:37;13.80;99.90
14192;DHT22;7177;48.572;7.838;2023-04-24T13:51:03;13.90;99.90
14192;DHT22;7177;48.572;7.838;2023-04-24T13:53:28;14.10;99.90
14192;DHT22;7177;48.572;7.838;2023-04-24T13:55:54;14.20;99.90
14192;DHT22;7177;48.572;7.838;2023-04-24T13:58:19;14.20;99.90
14192;DHT22;7177;48.572;7.838;2023-04-24T14:00:46;14.40;99.90
14192;DHT22;7177;48.572;7.838;2023-04-24T14:03:11;14.40;99.90
14192;DHT22;7177;48.572;7.838;2023-04-24T14:05:37;14.40;99.90
14192;DHT22;7177;48.572;7.838;2023-04-24T14:08:02;14.50;99.90
14192;DHT22;7177;48.572;7.838;2023-04-24T14:10:28;14.60;99.90
14192;DHT22;7177;48.572;7.838;2023-04-24T14:12:53;14.70;99.90
14192;DHT22;7177;48.572;7.838;2023-04-24T14:15:19;14.80;99.90
14192;DHT22;7177;48.572;7.838;2023-04-24T14:17:45;15.00;99.90
14192;DHT22;7177;48.572;7.838;2023-04-24T14:20:11;15.00;99.90
14192;DHT22;7177;48.572;7.838;2023-04-24T14:22:37;15.20;99.90
14192;DHT22;7177;48.572;7.838;2023-04-24T14:25:03;15.40;99.90
14192;DHT22;7177;48.572;7.838;2023-04-24T14:27:29;15.70;99.90
14192;DHT22;7177;48.572;7.838;2023-04-24T14:29:55;15.80;99.90
14192;DHT22;7177;48.572;7.838;2023-04-24T14:32:21;15.60;99.90
14192;DHT22;7177;48.572;7.838;2023-04-24T14:34:46;15.50;99.90
14192;DHT22;7177;48.572;7.838;2023-04-24T14:37:12;15.20;99.90
14192;DHT22;7177;48.572;7.838;2023-04-24T14:39:37;15.10;99.90
14192;DHT22;7177;48.572;7.838;2023-04-24T14:42:03;15.20;99.90
14192;DHT22;7177;48.572;7.838;2023-04-24T14:44:28;15.10;99.90
14192;DHT22;7177;48.572;7.838;2023-04-24T14:46:54;14.90;99.90
14192;DHT22;7177;48.572;7.838;2023-04-24T14:49:20;14.70;99.90
14192;DHT22;7177;48.572;7.838;2023-04-24T14:51:45;14.60;99.90
14192;DHT22;7177;48.572;7.838;2023-04-24T14:54:11;14.60;99.90
14192;DHT22;7177;48.572;7.838;2023-04-24T14:56:36;14.60;99.90
14192;DHT22;7177;48.572;7.838;2023-04-24T14:59:02;14.60;99.90
14192;DHT22;7177;48.572;7.838;2023-04-24T15:01:29;14.60;99.90
14192;DHT22;7177;48.572;7.838;2023-04-24T15:03:54;14.70;99.90
14192;DHT22;7177;48.572;7.838;2023-04-24T15:06:20;14.70;99.90
14192;DHT22;7177;48.572;7.838;2023-04-24T15:08:46;14.70;99.90
14192;DHT22;7177;48.572;7.838;2023-04-24T15:11:11;14.80;99.90
14192;DHT22;7177;48.572;7.838;2023-04-24T15:13:37;15.00;99.90
14192;DHT22;7177;48.572;7.838;2023-04-24T15:16:03;15.30;99.90
14192;DHT22;7177;48.572;7.838;2023-04-24T15:18:28;16.10;99.90
14192;DHT22;7177;48.572;7.838;2023-04-24T15:20:55;16.80;99.90
14192;DHT22;7177;48.572;7.838;2023-04-24T15:23:20;17.50;99.90
14192;DHT22;7177;48.572;7.838;2023-04-24T15:25:46;17.80;99.90
14192;DHT22;7177;48.572;7.838;2023-04-24T15:28:11;17.90;99.90
14192;DHT22;7177;48.572;7.838;2023-04-24T15:30:37;17.30;99.90
14192;DHT22;7177;48.572;7.838;2023-04-24T15:33:03;17.30;99.90
14192;DHT22;7177;48.572;7.838;2023-04-24T15:35:28;17.10;99.90
14192;DHT22;7177;48.572;7.838;2023-04-24T15:37:54;16.70;99.90
14192;DHT22;7177;48.572;7.838;2023-04-24T15:40:20;16.30;99.90
14192;DHT22;7177;48.572;7.838;2023-04-24T15:42:46;15.90;99.90
14192;DHT22;7177;48.572;7.838;2023-04-24T15:45:11;15.70;99.90
14192;DHT22;7177;48.572;7.838;2023-04-24T15:47:38;15.60;99.90
14192;DHT22;7177;48.572;7.838;2023-04-24T15:50:03;15.50;99.90
14192;DHT22;7177;48.572;7.838;2023-04-24T15:52:29;15.50;99.90
14192;DHT22;7177;48.572;7.838;2023-04-24T15:54:55;15.30;99.90
14192;DHT22;7177;48.572;7.838;2023-04-24T15:57:20;15.30;99.90
14192;DHT22;7177;48.572;7.838;2023-04-24T15:59:46;15.30;99.90
14192;DHT22;7177;48.572;7.838;2023-04-24T16:02:13;15.10;99.90